createdAt,value
2022-11-17T00:02:06.729Z,27.02
2022-11-17T00:04:54.439Z,26.98
2022-11-17T00:07:44.070Z,21.77
2022-11-17T00:10:31.220Z,23.10
2022-11-17T00:13:37.237Z,20.83
2022-11-17T00:16:24.584Z,26.50
2022-11-17T00:19:33.048Z,17.98
2022-11-17T00:22:20.637Z,26.23
2022-11-17T00:25:08.371Z,22.45
2022-11-17T00:27:57.620Z,22.77
2022-11-17T00:31:05.859Z,24.17
2022-11-17T00:34:07.251Z,16.33
2022-11-17T00:36:55.677Z,14.98
2022-11-17T00:39:42.884Z,14.18
2022-11-17T00:42:30.008Z,15.68
2022-11-17T00:45:17.303Z,17.63
2022-11-17T00:48:04.510Z,14.57
2022-11-17T00:50:51.703Z,16.90
2022-11-17T00:53:39.049Z,15.05
2022-11-17T00:56:26.991Z,15.95
2022-11-17T00:59:17.003Z,16.17
2022-11-17T01:02:04.952Z,14.10
2022-11-17T01:04:54.181Z,15.35
2022-11-17T01:07:41.268Z,15.02
2022-11-17T01:10:30.765Z,14.32
2022-11-17T01:13:18.154Z,16.63
2022-11-17T01:16:16.246Z,18.38
2022-11-17T01:19:04.131Z,12.40
2022-11-17T01:21:51.397Z,15.40
2022-11-17T01:24:38.749Z,17.10
2022-11-17T01:27:28.089Z,10.68
2022-11-17T01:30:18.592Z,10.30
2022-11-17T01:33:05.728Z,14.13
2022-11-17T01:35:52.851Z,14.18
2022-11-17T01:38:40.225Z,17.25
2022-11-17T01:41:28.266Z,15.35
2022-11-17T01:44:55.232Z,16.13
2022-11-17T01:47:48.424Z,13.30
2022-11-17T01:50:39.208Z,11.15
2022-11-17T01:53:31.020Z,10.05
2022-11-17T01:56:27.820Z,7.17
2022-11-17T01:59:25.217Z,6.80
2022-11-17T02:02:12.385Z,18.42
2022-11-17T02:05:17.527Z,13.45
2022-11-17T02:08:08.617Z,12.68
2022-11-17T02:10:55.975Z,11.35
2022-11-17T02:13:43.335Z,17.70
2022-11-17T02:16:30.955Z,12.00
2022-11-17T02:19:23.561Z,13.32
2022-11-17T02:22:39.257Z,16.65
2022-11-17T02:25:47.600Z,10.93
2022-11-17T02:29:06.883Z,11.75
2022-11-17T02:32:19.257Z,12.45
2022-11-17T02:35:35.650Z,12.77
2022-11-17T02:38:30.974Z,11.98
2022-11-17T02:41:32.298Z,14.82
2022-11-17T02:44:37.226Z,11.95
2022-11-17T02:47:28.179Z,10.48
2022-11-17T02:50:16.838Z,9.43
2022-11-17T02:53:04.852Z,11.48
2022-11-17T02:55:56.074Z,10.57
2022-11-17T02:58:46.327Z,5.45
2022-11-17T03:01:42.038Z,7.45
2022-11-17T03:05:09.367Z,7.93
2022-11-17T03:08:08.200Z,5.13
2022-11-17T03:10:58.378Z,12.27
2022-11-17T03:13:56.410Z,7.95
2022-11-17T03:17:01.936Z,6.38
2022-11-17T03:20:12.389Z,6.03
2022-11-17T03:23:18.570Z,4.82
2022-11-17T03:26:10.786Z,7.45
2022-11-17T03:28:58.762Z,6.80
2022-11-17T03:31:48.532Z,10.50
2022-11-17T03:34:56.388Z,6.70
2022-11-17T03:37:55.169Z,7.00
2022-11-17T03:40:46.673Z,6.82
2022-11-17T03:43:34.287Z,11.00
2022-11-17T03:46:26.067Z,7.22
2022-11-17T03:49:24.652Z,9.98
2022-11-17T03:52:11.944Z,6.75
2022-11-17T03:55:02.411Z,5.70
2022-11-17T03:58:05.683Z,8.32
2022-11-17T04:00:54.585Z,8.27
2022-11-17T04:03:41.738Z,5.50
2022-11-17T04:06:28.889Z,6.85
2022-11-17T04:09:18.752Z,6.85
2022-11-17T04:12:28.591Z,9.15
2022-11-17T04:15:34.985Z,7.70
2022-11-17T04:18:23.795Z,12.88
2022-11-17T04:21:10.903Z,5.90
2022-11-17T04:24:02.629Z,7.75
2022-11-17T04:27:08.469Z,8.10
2022-11-17T04:29:55.538Z,10.00
2022-11-17T04:32:42.636Z,8.80
2022-11-17T04:35:30.644Z,10.10
2022-11-17T04:38:22.926Z,9.13
2022-11-17T04:41:30.021Z,8.13
2022-11-17T04:44:19.402Z,10.13
2022-11-17T04:47:07.019Z,9.80
2022-11-17T04:49:56.321Z,13.75
2022-11-17T04:52:43.424Z,10.05
2022-11-17T04:55:34.943Z,12.00
2022-11-17T04:58:22.277Z,17.63
2022-11-17T05:01:18.780Z,17.75
2022-11-17T05:04:14.089Z,12.45
2022-11-17T05:07:01.255Z,11.30
2022-11-17T05:09:48.425Z,15.65
2022-11-17T05:12:53.982Z,11.38
2022-11-17T05:16:04.270Z,16.05
2022-11-17T05:18:51.346Z,12.90
2022-11-17T05:21:41.168Z,14.77
2022-11-17T05:24:31.390Z,16.55
2022-11-17T05:27:20.736Z,16.85
2022-11-17T05:30:08.862Z,15.77
2022-11-17T05:32:56.011Z,9.77
2022-11-17T05:35:43.137Z,10.40
2022-11-17T05:38:30.234Z,7.60
2022-11-17T05:41:21.196Z,6.72
2022-11-17T05:44:08.330Z,4.47
2022-11-17T05:46:55.461Z,5.07
2022-11-17T05:49:42.638Z,4.78
2022-11-17T05:52:29.721Z,2.97
2022-11-17T05:55:16.862Z,3.08
2022-11-17T05:58:12.105Z,4.25
2022-11-17T06:01:00.348Z,4.53
2022-11-17T06:03:52.911Z,2.97
2022-11-17T06:06:40.049Z,3.28
2022-11-17T06:09:29.671Z,4.20
2022-11-17T06:12:16.887Z,2.47
2022-11-17T06:15:04.956Z,5.30
2022-11-17T06:17:56.951Z,1.75
2022-11-17T06:20:51.908Z,5.00
2022-11-17T06:23:39.235Z,3.03
2022-11-17T06:26:26.628Z,2.70
2022-11-17T06:29:16.022Z,2.45
2022-11-17T06:32:03.248Z,2.70
2022-11-17T06:34:55.594Z,2.97
2022-11-17T06:37:46.049Z,5.72
2022-11-17T06:40:33.160Z,2.65
2022-11-17T06:43:20.276Z,6.50
2022-11-17T06:46:09.741Z,3.83
2022-11-17T06:48:59.174Z,3.28
2022-11-17T06:51:46.267Z,5.72
2022-11-17T06:54:33.470Z,2.58
2022-11-17T06:57:21.136Z,6.18
2022-11-17T07:00:09.433Z,3.58
2022-11-17T07:03:04.790Z,4.72
2022-11-17T07:05:52.434Z,4.63
2022-11-17T07:08:40.024Z,2.72
2022-11-17T07:11:27.353Z,3.28
2022-11-17T07:14:14.566Z,2.20
2022-11-17T07:17:03.820Z,2.88
2022-11-17T07:19:50.960Z,6.55
2022-11-17T07:22:38.768Z,2.50
2022-11-17T07:25:28.382Z,3.50
2022-11-17T07:28:15.719Z,3.83
2022-11-17T07:31:05.479Z,5.22
2022-11-17T07:33:54.421Z,5.07
2022-11-17T07:36:41.701Z,2.88
2022-11-17T07:39:29.356Z,6.13
2022-11-17T07:42:16.588Z,4.88
2022-11-17T07:45:05.971Z,6.03
2022-11-17T07:47:58.264Z,5.53
2022-11-17T07:50:45.458Z,5.63
2022-11-17T07:53:35.137Z,7.07
2022-11-17T07:56:22.479Z,3.30
2022-11-17T07:59:09.803Z,5.13
2022-11-17T08:01:57.360Z,5.63
2022-11-17T08:04:44.733Z,2.60
2022-11-17T08:07:32.070Z,2.47
2022-11-17T08:10:19.596Z,3.90
2022-11-17T08:13:07.915Z,4.88
2022-11-17T08:16:01.330Z,5.18
2022-11-17T08:18:52.649Z,3.20
2022-11-17T08:21:41.203Z,3.15
2022-11-17T08:24:28.465Z,2.22
2022-11-17T08:27:15.917Z,2.58
2022-11-17T08:30:08.875Z,3.80
2022-11-17T08:32:56.137Z,3.60
2022-11-17T08:35:45.477Z,3.45
2022-11-17T08:38:36.628Z,6.55
2022-11-17T08:41:26.959Z,4.60
2022-11-17T08:44:15.866Z,3.72
2022-11-17T08:47:03.408Z,2.45
2022-11-17T08:49:51.321Z,3.35
2022-11-17T08:52:38.795Z,2.60
2022-11-17T08:55:26.898Z,1.75
2022-11-17T08:58:14.627Z,2.63
2022-11-17T09:01:05.325Z,1.75
2022-11-17T09:03:53.587Z,2.10
2022-11-17T09:06:40.982Z,2.00
2022-11-17T09:09:31.681Z,4.25
2022-11-17T09:12:20.636Z,2.97
2022-11-17T09:15:09.878Z,1.90
2022-11-17T09:17:57.386Z,2.78
2022-11-17T09:20:45.976Z,3.40
2022-11-17T09:23:33.885Z,2.60
2022-11-17T09:26:21.635Z,1.92
2022-11-17T09:29:09.359Z,3.22
2022-11-17T09:31:56.920Z,2.58
2022-11-17T09:34:44.537Z,2.00
2022-11-17T09:37:34.744Z,4.32
2022-11-17T09:40:22.274Z,2.88
2022-11-17T09:43:38.162Z,4.63
2022-11-17T09:47:06.285Z,4.05
2022-11-17T09:50:02.334Z,2.33
2022-11-17T09:53:08.296Z,3.50
2022-11-17T09:56:03.029Z,3.80
2022-11-17T09:59:04.407Z,6.75
2022-11-17T10:01:51.624Z,4.03
2022-11-17T10:04:38.993Z,3.85
2022-11-17T10:07:26.771Z,1.73
2022-11-17T10:10:21.624Z,4.15
2022-11-17T10:13:28.048Z,7.88
2022-11-17T10:16:17.496Z,3.85
2022-11-17T10:19:16.744Z,4.28
2022-11-17T10:22:04.088Z,6.43
2022-11-17T10:24:58.745Z,4.55
2022-11-17T10:27:53.924Z,5.03
2022-11-17T10:31:11.521Z,5.22
2022-11-17T10:33:58.822Z,6.13
2022-11-17T10:36:48.610Z,6.55
2022-11-17T10:39:41.640Z,4.72
2022-11-17T10:42:29.000Z,5.82
2022-11-17T10:45:20.355Z,10.55
2022-11-17T10:48:25.329Z,4.50
2022-11-17T10:51:19.527Z,5.40
2022-11-17T10:54:15.427Z,9.38
2022-11-17T10:57:08.483Z,5.00
2022-11-17T10:59:58.057Z,11.05
2022-11-17T11:02:48.266Z,6.18
2022-11-17T11:05:35.463Z,6.72
2022-11-17T11:08:25.313Z,7.38
2022-11-17T11:11:44.518Z,10.05
2022-11-17T11:14:40.581Z,7.20
2022-11-17T11:17:29.821Z,6.45
2022-11-17T11:20:21.350Z,9.82
2022-11-17T11:23:36.244Z,9.23
2022-11-17T11:26:29.231Z,11.35
2022-11-17T11:29:26.344Z,12.48
2022-11-17T11:32:43.069Z,8.88
2022-11-17T11:35:36.404Z,8.73
2022-11-17T11:38:48.611Z,10.60
2022-11-17T11:41:56.518Z,6.27
2022-11-17T11:45:05.093Z,9.30
2022-11-17T11:48:04.543Z,11.40
2022-11-17T11:50:51.957Z,7.45
2022-11-17T11:53:50.859Z,10.75
2022-11-17T11:56:46.431Z,7.25
2022-11-17T11:59:48.334Z,11.60
2022-11-17T12:02:41.927Z,10.30
2022-11-17T12:05:35.519Z,9.65
2022-11-17T12:08:38.440Z,8.13
2022-11-17T12:14:32.902Z,6.85
2022-11-17T12:17:30.258Z,8.70
2022-11-17T12:20:46.981Z,8.05
2022-11-17T12:24:03.400Z,10.55
2022-11-17T12:26:51.157Z,6.50
2022-11-17T12:29:47.771Z,9.10
2022-11-17T12:32:46.663Z,12.77
2022-11-17T12:35:41.969Z,11.95
2022-11-17T12:38:29.313Z,13.68
2022-11-17T12:41:48.719Z,12.48
2022-11-17T12:44:44.263Z,10.20
2022-11-17T12:47:35.566Z,10.38
2022-11-17T12:50:34.797Z,9.40
2022-11-17T12:54:13.086Z,8.52
2022-11-17T12:57:30.022Z,10.77
2022-11-17T13:00:29.912Z,7.18
2022-11-17T13:03:30.730Z,16.50
2022-11-17T13:06:36.743Z,7.47
2022-11-17T13:09:27.271Z,6.53
2022-11-17T13:12:23.433Z,10.18
2022-11-17T13:15:24.428Z,8.35
2022-11-17T13:18:37.853Z,10.80
2022-11-17T13:21:25.030Z,11.73
2022-11-17T13:24:12.648Z,11.38
2022-11-17T13:27:02.119Z,11.00
2022-11-17T13:29:55.994Z,14.35
2022-11-17T13:32:43.798Z,11.38
2022-11-17T13:35:36.106Z,12.55
2022-11-17T13:38:24.596Z,10.25
2022-11-17T13:41:13.207Z,12.93
2022-11-17T13:44:01.285Z,11.10
2022-11-17T13:46:48.620Z,13.93
2022-11-17T13:49:37.595Z,15.10
2022-11-17T13:52:42.065Z,14.23
2022-11-17T13:55:35.401Z,14.38
2022-11-17T13:58:40.823Z,11.70
2022-11-17T14:01:29.627Z,14.05
2022-11-17T14:04:23.856Z,17.60
2022-11-17T14:07:16.981Z,18.63
2022-11-17T14:10:20.492Z,13.57
2022-11-17T14:13:24.342Z,16.77
2022-11-17T14:16:28.200Z,17.08
2022-11-17T14:19:16.115Z,20.25
2022-11-17T14:22:09.514Z,14.02
2022-11-17T14:24:58.044Z,13.57
2022-11-17T14:27:49.191Z,11.70
2022-11-17T14:30:41.109Z,18.65
2022-11-17T14:33:33.053Z,18.85
2022-11-17T14:36:20.441Z,17.65
2022-11-17T14:39:14.957Z,23.30
2022-11-17T14:42:02.428Z,22.20
2022-11-17T14:44:50.100Z,13.38
2022-11-17T14:47:40.001Z,10.95
2022-11-17T14:50:29.776Z,17.00
2022-11-17T14:53:17.265Z,18.55
2022-11-17T14:56:09.041Z,14.63
2022-11-17T14:58:59.545Z,8.63
2022-11-17T15:01:49.258Z,13.15
2022-11-17T15:04:50.188Z,11.93
2022-11-17T15:07:38.772Z,8.00
2022-11-17T15:10:31.290Z,11.93
2022-11-17T15:13:21.119Z,11.68
2022-11-17T15:16:10.636Z,13.45
2022-11-17T15:18:59.285Z,13.20
2022-11-17T15:21:46.797Z,11.90
2022-11-17T15:24:33.970Z,10.80
2022-11-17T15:27:21.382Z,12.32
2022-11-17T15:30:10.432Z,12.15
2022-11-17T15:33:01.239Z,11.15
2022-11-17T15:35:48.572Z,9.80
2022-11-17T15:38:37.200Z,10.43
2022-11-17T15:41:32.826Z,14.23
2022-11-17T15:44:20.203Z,10.65
2022-11-17T15:47:07.727Z,9.05
2022-11-17T15:49:58.668Z,14.32
2022-11-17T15:53:03.659Z,14.60
2022-11-17T15:55:52.008Z,8.98
2022-11-17T15:58:40.807Z,10.65
2022-11-17T16:01:33.233Z,6.22
2022-11-17T16:04:23.196Z,6.47
2022-11-17T16:07:10.858Z,14.40
2022-11-17T16:09:58.360Z,9.15
2022-11-17T16:12:45.964Z,8.55
2022-11-17T16:15:33.498Z,9.82
2022-11-17T16:18:21.464Z,8.93
2022-11-17T16:21:13.597Z,11.63
2022-11-17T16:24:02.556Z,8.90
2022-11-17T16:26:49.829Z,9.88
2022-11-17T16:29:37.062Z,13.13
2022-11-17T16:32:40.741Z,9.88
2022-11-17T16:35:28.420Z,9.65
2022-11-17T16:38:17.028Z,7.97
2022-11-17T16:41:04.222Z,9.57
2022-11-17T16:43:51.726Z,9.10
2022-11-17T16:46:41.741Z,11.70
2022-11-17T16:49:31.188Z,12.45
2022-11-17T16:52:18.777Z,10.82
2022-11-17T16:55:06.688Z,10.45
2022-11-17T16:57:55.322Z,10.45
2022-11-17T17:00:42.601Z,11.55
2022-11-17T17:03:33.028Z,9.27
2022-11-17T17:06:22.858Z,8.23
2022-11-17T17:09:11.980Z,12.90
2022-11-17T17:11:59.233Z,7.38
2022-11-17T17:14:47.706Z,7.75
2022-11-17T17:17:34.888Z,9.88
2022-11-17T17:20:24.725Z,6.00
2022-11-17T17:23:12.930Z,7.45
2022-11-17T17:26:03.046Z,8.18
2022-11-17T17:28:54.111Z,13.05
2022-11-17T17:31:42.561Z,9.05
2022-11-17T17:34:30.111Z,10.77
2022-11-17T17:37:18.487Z,7.32
2022-11-17T17:40:06.385Z,3.95
2022-11-17T17:42:53.817Z,6.95
2022-11-17T17:45:41.251Z,6.60
2022-11-17T17:48:32.751Z,7.80
2022-11-17T17:51:23.970Z,5.18
2022-11-17T17:54:24.434Z,7.65
2022-11-17T17:57:11.800Z,6.28
2022-11-17T18:00:00.008Z,6.18
2022-11-17T18:02:47.323Z,6.18
2022-11-17T18:05:34.961Z,10.57
2022-11-17T18:08:23.826Z,12.43
2022-11-17T18:11:13.565Z,5.95
2022-11-17T18:14:00.959Z,7.35
2022-11-17T18:16:48.798Z,5.28
2022-11-17T18:19:35.965Z,5.40
2022-11-17T18:22:24.256Z,5.80
2022-11-17T18:25:13.814Z,15.05
2022-11-17T18:28:05.454Z,4.18
2022-11-17T18:30:53.079Z,8.73
2022-11-17T18:33:41.257Z,8.95
2022-11-17T18:36:31.941Z,10.85
2022-11-17T18:39:19.690Z,6.88
2022-11-17T18:42:07.307Z,6.40
2022-11-17T18:44:57.385Z,7.38
2022-11-17T18:47:45.232Z,6.07
2022-11-17T18:50:52.103Z,8.35
2022-11-17T18:53:43.938Z,4.03
2022-11-17T18:56:36.311Z,5.75
2022-11-17T18:59:26.251Z,9.52
2022-11-17T19:02:13.663Z,7.38
2022-11-17T19:05:03.669Z,4.20
2022-11-17T19:07:51.141Z,4.35
2022-11-17T19:10:38.873Z,5.88
2022-11-17T19:13:26.511Z,2.33
2022-11-17T19:16:19.972Z,2.70
2022-11-17T19:19:07.401Z,6.32
2022-11-17T19:21:55.385Z,3.17
2022-11-17T19:24:44.171Z,1.83
2022-11-17T19:27:31.717Z,3.00
2022-11-17T19:30:22.462Z,2.72
2022-11-17T19:33:09.899Z,4.85
2022-11-17T19:35:57.551Z,4.20
2022-11-17T19:38:51.875Z,3.08
2022-11-17T19:41:42.657Z,3.70
2022-11-17T19:44:30.077Z,7.13
2022-11-17T19:47:18.220Z,7.95
2022-11-17T19:50:06.306Z,6.88
2022-11-17T19:52:54.106Z,8.32
2022-11-17T19:55:44.698Z,17.73
2022-11-17T19:58:32.070Z,7.20
2022-11-17T20:01:28.311Z,3.28
2022-11-17T20:04:16.069Z,6.50
2022-11-17T20:07:06.764Z,7.53
2022-11-17T20:09:54.548Z,5.80
2022-11-17T20:12:44.749Z,5.50
2022-11-17T20:15:36.782Z,4.10
2022-11-17T20:18:24.430Z,7.90
2022-11-17T20:21:14.096Z,4.85
2022-11-17T20:24:02.233Z,2.75
2022-11-17T20:26:52.112Z,3.55
2022-11-17T20:29:39.622Z,6.00
2022-11-17T20:32:32.725Z,3.67
2022-11-17T20:35:20.797Z,5.65
2022-11-17T20:38:13.012Z,13.50
2022-11-17T20:41:05.878Z,14.68
2022-11-17T20:43:58.348Z,9.75
2022-11-17T20:46:45.812Z,4.07
2022-11-17T20:49:33.213Z,5.50
2022-11-17T20:52:20.829Z,5.05
2022-11-17T20:55:11.336Z,6.45
2022-11-17T20:57:58.891Z,7.32
2022-11-17T21:00:46.638Z,8.10
2022-11-17T21:03:34.290Z,8.68
2022-11-17T21:06:23.452Z,10.68
2022-11-17T21:09:10.878Z,5.72
2022-11-17T21:11:59.092Z,5.95
2022-11-17T21:14:46.550Z,12.13
2022-11-17T21:17:52.883Z,10.55
2022-11-17T21:20:40.314Z,14.02
2022-11-17T21:23:28.582Z,16.52
2022-11-17T21:26:19.770Z,10.57
2022-11-17T21:29:07.389Z,10.18
2022-11-17T21:31:54.698Z,2.92
2022-11-17T21:34:47.022Z,3.92
2022-11-17T21:37:37.271Z,3.88
2022-11-17T21:40:24.768Z,2.17
2022-11-17T21:43:11.982Z,10.05
2022-11-17T21:46:06.958Z,4.78
2022-11-17T21:48:57.065Z,4.53
2022-11-17T21:51:45.596Z,8.20
2022-11-17T21:54:33.037Z,2.00
2022-11-17T21:57:22.772Z,4.78
2022-11-17T22:00:10.500Z,4.40
2022-11-17T22:02:57.711Z,4.60
2022-11-17T22:05:45.052Z,4.15
2022-11-17T22:08:33.995Z,2.22
2022-11-17T22:11:37.043Z,1.02
2022-11-17T22:14:26.655Z,3.90
2022-11-17T22:17:13.823Z,1.27
2022-11-17T22:20:01.107Z,2.05
2022-11-17T22:22:49.174Z,1.08
2022-11-17T22:25:45.256Z,2.42
2022-11-17T22:28:33.144Z,1.48
2022-11-17T22:31:21.185Z,0.70
2022-11-17T22:34:08.672Z,0.98
2022-11-17T22:36:55.897Z,1.88
2022-11-17T22:39:42.989Z,0.82
2022-11-17T22:42:30.365Z,1.52
2022-11-17T22:45:17.487Z,0.80
2022-11-17T22:48:08.312Z,0.80
2022-11-17T22:51:00.992Z,1.80
2022-11-17T22:56:36.160Z,2.78
2022-11-17T22:59:27.237Z,1.80
2022-11-17T23:02:14.394Z,1.80
2022-11-17T23:05:01.562Z,5.30
2022-11-17T23:07:48.889Z,4.90
2022-11-17T23:10:37.202Z,2.05
2022-11-17T23:13:24.321Z,1.58
2022-11-17T23:16:11.656Z,1.77
2022-11-17T23:18:59.116Z,1.58
2022-11-17T23:21:46.224Z,4.28
2022-11-17T23:24:36.088Z,2.95
2022-11-17T23:27:23.321Z,2.88
2022-11-17T23:30:11.085Z,2.80
2022-11-17T23:32:58.322Z,2.95
2022-11-17T23:35:45.504Z,4.47
2022-11-17T23:38:33.492Z,3.47
2022-11-17T23:41:21.647Z,3.35
2022-11-17T23:44:08.753Z,4.80
2022-11-17T23:46:56.043Z,4.40
2022-11-17T23:49:43.228Z,4.10
2022-11-17T23:52:30.655Z,2.58
2022-11-17T23:55:17.789Z,4.95
2022-11-17T23:58:04.970Z,3.35
